Time;durP1;ratioP1;P1;durP2;ratioP2;P2;SDS_P1;SDS_P2;PMS_P1;PMS_P2;Temp;Humidity;BMP_temperature;BMP_pressure;BME280_temperature;BME280_humidity;BME280_pressure;Samples;Min_cycle;Max_cycle;Signal;HPM_P1;HPM_P2
2022/09/23 00:01:46;;;;;;;3.90;3.70;;;11.80;47.10;;;;;;20470;6848;337680;-75
2022/09/23 00:04:12;;;;;;;5.40;5.00;;;12.00;48.10;;;;;;20482;6848;308239;-75
2022/09/23 00:06:37;;;;;;;11.53;6.93;;;12.40;47.10;;;;;;20670;6848;126974;-75
2022/09/23 00:09:03;;;;;;;12.93;8.10;;;12.30;46.70;;;;;;20412;6848;278434;-74
2022/09/23 00:11:28;;;;;;;5.32;4.90;;;12.40;46.60;;;;;;20493;6849;339431;-75
2022/09/23 00:13:54;;;;;;;5.07;4.40;;;12.60;46.10;;;;;;20455;6849;304927;-75
2022/09/23 00:16:19;;;;;;;4.40;4.10;;;12.70;45.80;;;;;;20684;6849;117280;-75
2022/09/23 00:18:47;;;;;;;4.27;4.07;;;12.50;46.10;;;;;;20460;6849;279019;-75
2022/09/23 00:21:11;;;;;;;4.20;3.90;;;12.50;46.10;;;;;;20696;6849;117354;-75
2022/09/23 00:23:37;;;;;;;3.60;3.35;;;12.00;46.60;;;;;;20699;6849;117371;-74
2022/09/23 00:26:03;;;;;;;3.70;3.50;;;11.90;46.50;;;;;;20708;6849;123218;-75
2022/09/23 00:28:29;;;;;;;4.12;3.92;;;11.70;46.90;;;;;;20468;6849;337242;-75
2022/09/23 00:30:55;;;;;;;4.20;3.90;;;12.20;46.80;;;;;;20489;6849;316897;-76
2022/09/23 00:33:20;;;;;;;3.73;3.53;;;12.20;46.80;;;;;;20716;6849;117403;-74
2022/09/23 00:35:46;;;;;;;3.90;3.60;;;12.10;46.50;;;;;;20709;6849;120440;-74
2022/09/23 00:38:13;;;;;;;4.30;4.00;;;11.80;46.80;;;;;;20502;6849;279069;-75
2022/09/23 00:40:37;;;;;;;3.80;3.60;;;11.90;47.10;;;;;;20683;6849;127036;-74
2022/09/23 00:43:03;;;;;;;4.17;3.87;;;11.90;47.00;;;;;;20476;6849;308894;-74
2022/09/23 00:45:28;;;;;;;3.70;3.50;;;12.00;47.10;;;;;;20488;6847;282725;-75
2022/09/23 00:47:54;;;;;;;3.93;3.73;;;12.30;47.20;;;;;;20503;6848;278493;-75
2022/09/23 00:50:23;;;;;;;4.13;3.83;;;12.50;46.00;;;;;;20480;6848;324344;-75
2022/09/23 00:52:49;;;;;;;3.47;3.27;;;12.70;45.60;;;;;;20692;6848;121207;-74
2022/09/23 00:55:14;;;;;;;4.07;3.77;;;12.40;45.70;;;;;;20706;6848;117319;-75
2022/09/23 00:57:40;;;;;;;4.60;4.25;;;12.00;46.10;;;;;;20489;6848;336796;-74
2022/09/23 01:00:07;;;;;;;5.30;4.90;;;12.10;46.50;;;;;;20499;6848;341477;-76
2022/09/23 01:02:32;;;;;;;5.40;5.00;;;12.30;45.90;;;;;;20483;6848;279067;-75
2022/09/23 01:04:58;;;;;;;4.78;4.47;;;12.60;45.80;;;;;;20499;6848;282388;-75
2022/09/23 01:07:23;;;;;;;4.12;3.83;;;12.70;45.30;;;;;;20707;6848;117722;-75
2022/09/23 01:09:50;;;;;;;3.93;3.60;;;12.10;46.70;;;;;;20703;6848;120971;-74
2022/09/23 01:12:32;;;;;;;5.00;4.60;;;12.00;46.00;;;;;;20491;6848;314155;-75
2022/09/23 01:15:00;;;;;;;3.93;3.73;;;12.10;46.40;;;;;;20702;6848;117824;-75
2022/09/23 01:17:33;;;;;;;4.80;4.50;;;11.90;46.20;;;;;;20474;6848;329429;-75
2022/09/23 01:20:15;;;;;;;4.23;3.93;;;12.00;46.40;;;;;;20679;6848;118811;-75
2022/09/23 01:22:50;;;;;;;4.83;4.43;;;11.90;46.40;;;;;;20476;6849;426906;-75
2022/09/23 01:25:26;;;;;;;4.53;4.13;;;11.80;46.40;;;;;;20705;6849;117268;-75
2022/09/23 01:28:18;;;;;;;5.00;4.60;;;11.80;46.40;;;;;;20471;6849;287558;-75
2022/09/23 01:30:57;;;;;;;5.07;4.73;;;11.90;46.40;;;;;;20468;6849;313811;-74
2022/09/23 01:33:39;;;;;;;5.43;5.03;;;12.20;46.30;;;;;;20492;6849;279464;-74
2022/09/23 01:36:24;;;;;;;5.20;4.80;;;12.40;45.90;;;;;;20648;6849;117786;-76
2022/09/23 01:39:10;;;;;;;4.33;3.93;;;12.10;46.00;;;;;;20699;6849;118430;-75
2022/09/23 01:41:56;;;;;;;4.37;4.00;;;11.30;47.00;;;;;;20673;6849;121002;-75
2022/09/23 01:44:28;;;;;;;7.47;4.20;;;11.30;47.00;;;;;;20687;6849;150531;-75
2022/09/23 01:46:59;;;;;;;4.20;3.90;;;11.00;47.40;;;;;;20695;6849;118371;-74
2022/09/23 01:49:25;;;;;;;3.70;3.40;;;10.90;47.40;;;;;;20274;6849;312580;-75
2022/09/23 01:52:00;;;;;;;3.30;3.10;;;11.10;49.10;;;;;;19871;6849;119704;-74
2022/09/23 01:54:37;;;;;;;5.03;3.27;;;11.20;48.80;;;;;;20665;6849;117976;-75
2022/09/23 01:57:02;;;;;;;3.70;3.50;;;11.20;48.50;;;;;;20483;6847;280605;-75
2022/09/23 01:59:28;;;;;;;3.50;3.20;;;11.20;48.40;;;;;;20475;6848;278450;-75
2022/09/23 02:01:58;;;;;;;3.37;3.17;;;11.50;47.70;;;;;;20662;6848;117575;-74
2022/09/23 02:04:23;;;;;;;2.83;2.63;;;11.50;47.70;;;;;;20667;6848;152758;-76
2022/09/23 02:06:49;;;;;;;3.35;3.15;;;11.20;47.90;;;;;;20672;6848;118213;-74
2022/09/23 02:09:14;;;;;;;3.20;3.00;;;11.00;48.10;;;;;;20691;6848;117118;-74
2022/09/23 02:11:44;;;;;;;2.97;2.78;;;10.70;48.30;;;;;;20700;6848;117290;-75
2022/09/23 02:14:13;;;;;;;3.40;3.20;;;10.60;48.60;;;;;;20693;6848;118035;-74
2022/09/23 02:16:38;;;;;;;3.60;3.30;;;10.50;48.80;;;;;;20453;6848;279549;-75
2022/09/23 02:19:06;;;;;;;3.37;3.03;;;10.80;49.20;;;;;;20691;6848;117396;-74
2022/09/23 02:21:32;;;;;;;3.33;3.13;;;10.70;48.70;;;;;;20693;6848;117554;-74
2022/09/23 02:23:58;;;;;;;3.50;3.30;;;10.60;48.90;;;;;;20479;6848;312438;-74
2022/09/23 02:26:29;;;;;;;3.30;3.00;;;10.80;49.00;;;;;;20670;6848;120261;-75
2022/09/23 02:29:20;;;;;;;3.17;2.97;;;10.80;48.60;;;;;;20684;6848;117401;-75
2022/09/23 02:31:52;;;;;;;3.60;3.30;;;10.60;48.80;;;;;;20492;6848;339737;-74
2022/09/23 02:34:33;;;;;;;3.67;3.47;;;10.80;48.90;;;;;;20488;6849;278312;-75
2022/09/23 02:37:09;;;;;;;3.80;3.50;;;11.20;48.20;;;;;;20476;6849;337250;-74
2022/09/23 02:39:54;;;;;;;3.85;3.65;;;11.50;47.50;;;;;;20488;6849;309257;-74
2022/09/23 02:42:20;;;;;;;3.73;3.30;;;11.60;46.70;;;;;;20675;6849;117609;-75
2022/09/23 02:44:46;;;;;;;3.53;3.33;;;11.30;46.90;;;;;;20671;6849;123274;-75
2022/09/23 02:47:11;;;;;;;4.07;3.77;;;10.90;47.40;;;;;;20491;6849;300245;-76
2022/09/23 02:49:37;;;;;;;4.70;4.40;;;11.00;47.90;;;;;;20490;6849;308172;-75
2022/09/23 02:52:03;;;;;;;4.13;3.93;;;11.30;47.30;;;;;;20703;6849;122038;-75
2022/09/23 02:54:28;;;;;;;4.40;4.00;;;11.10;47.20;;;;;;20446;6849;308099;-75
2022/09/23 02:56:54;;;;;;;4.40;4.17;;;11.10;48.00;;;;;;20495;6849;280831;-75
2022/09/23 02:59:19;;;;;;;4.70;4.30;;;11.40;47.50;;;;;;20494;6849;307610;-75
2022/09/23 03:02:20;;;;;;;4.20;4.00;;;11.60;47.00;;;;;;20481;6849;310454;-75
2022/09/23 03:05:04;;;;;;;4.40;4.20;;;11.70;47.00;;;;;;20475;6849;282232;-75
2022/09/23 03:07:46;;;;;;;4.82;4.43;;;11.90;46.80;;;;;;20492;6847;337603;-74
2022/09/23 03:10:32;;;;;;;4.23;4.03;;;11.60;46.40;;;;;;20695;6848;117725;-74
2022/09/23 03:13:11;;;;;;;4.10;3.80;;;11.60;46.40;;;;;;20684;6848;118077;-74
2022/09/23 03:15:37;;;;;;;3.67;3.47;;;11.10;47.20;;;;;;20675;6848;119018;-74
2022/09/23 03:18:11;;;;;;;3.80;3.50;;;10.50;48.90;;;;;;20666;6848;117676;-75
2022/09/23 03:20:50;;;;;;;4.18;3.87;;;10.50;48.20;;;;;;20458;6848;343933;-75
2022/09/23 03:23:17;;;;;;;4.07;3.87;;;10.70;48.70;;;;;;20486;6848;278038;-74
2022/09/23 03:25:43;;;;;;;4.37;4.18;;;11.10;48.10;;;;;;20478;6848;295035;-74
2022/09/23 03:28:07;;;;;;;4.10;3.90;;;11.30;47.60;;;;;;20494;6848;279157;-75
2022/09/23 03:30:36;;;;;;;4.43;4.22;;;11.50;46.90;;;;;;20479;6848;282335;-77
2022/09/23 03:33:04;;;;;;;4.53;4.22;;;11.60;46.50;;;;;;20494;6848;309241;-77
2022/09/23 03:35:31;;;;;;;3.67;3.47;;;11.60;46.20;;;;;;20698;6848;120561;-77
2022/09/23 03:38:01;;;;;;;3.83;3.53;;;11.30;46.60;;;;;;20495;6848;311652;-76
2022/09/23 03:40:30;;;;;;;4.20;4.00;;;11.20;47.70;;;;;;20423;6848;308776;-76
2022/09/23 03:42:56;;;;;;;3.70;3.50;;;11.30;46.90;;;;;;20487;6848;308557;-74
2022/09/23 03:45:22;;;;;;;4.00;3.80;;;11.50;46.50;;;;;;20495;6849;279708;-78
2022/09/23 03:47:48;;;;;;;4.30;3.90;;;11.40;46.00;;;;;;20487;6849;285954;-77
2022/09/23 03:50:16;;;;;;;4.22;3.92;;;11.50;45.80;;;;;;20503;6849;308337;-77
2022/09/23 03:52:40;;;;;;;4.00;3.70;;;11.50;45.60;;;;;;20467;6849;337666;-77
2022/09/23 03:55:05;;;;;;;5.80;3.83;;;11.40;45.50;;;;;;20697;6849;118014;-78
2022/09/23 03:57:31;;;;;;;3.97;3.57;;;11.10;46.00;;;;;;20704;6849;117269;-79
2022/09/23 03:59:56;;;;;;;3.22;3.12;;;10.60;46.80;;;;;;20709;6849;117263;-77
2022/09/23 04:02:23;;;;;;;3.60;3.40;;;10.40;48.30;;;;;;20476;6849;311897;-78
2022/09/23 04:04:48;;;;;;;3.90;3.70;;;10.30;48.90;;;;;;20703;6849;117511;-79
2022/09/23 04:07:14;;;;;;;4.12;3.83;;;10.30;48.10;;;;;;20495;6849;313483;-77
2022/09/23 04:09:39;;;;;;;3.97;3.67;;;10.40;47.90;;;;;;20695;6849;118408;-77
2022/09/23 04:12:06;;;;;;;4.03;3.73;;;10.10;48.00;;;;;;20703;6849;117358;-77
2022/09/23 04:14:31;;;;;;;4.00;3.80;;;10.10;48.00;;;;;;20464;6849;308498;-79
2022/09/23 04:16:57;;;;;;;4.25;3.85;;;10.30;48.40;;;;;;20494;6849;308540;-78
2022/09/23 04:19:22;;;;;;;4.10;3.70;;;10.60;47.90;;;;;;20491;6847;282809;-78
2022/09/23 04:21:49;;;;;;;4.20;3.90;;;10.80;47.30;;;;;;20493;6848;308856;-82
2022/09/23 04:24:16;;;;;;;4.17;3.97;;;10.90;46.70;;;;;;20712;6848;117600;-83
2022/09/23 04:26:42;;;;;;;4.30;4.00;;;10.30;47.50;;;;;;20690;6848;118561;-77
2022/09/23 04:29:09;;;;;;;4.27;3.97;;;10.30;47.40;;;;;;20713;6848;117655;-82
2022/09/23 04:31:33;;;;;;;4.47;4.07;;;10.00;48.00;;;;;;20701;6848;117312;-78
2022/09/23 04:33:59;;;;;;;4.27;4.07;;;9.70;49.30;;;;;;20499;6848;283484;-77
2022/09/23 04:36:26;;;;;;;4.57;4.37;;;9.80;49.90;;;;;;20692;6848;118782;-78
2022/09/23 04:38:51;;;;;;;4.55;4.35;;;9.90;49.80;;;;;;20489;6848;278366;-75
2022/09/23 04:41:18;;;;;;;5.10;4.80;;;10.30;48.90;;;;;;20501;6848;281349;-75
2022/09/23 04:43:43;;;;;;;4.63;4.23;;;10.30;48.20;;;;;;20699;6848;117494;-75
2022/09/23 04:46:09;;;;;;;4.80;4.50;;;10.20;48.00;;;;;;20696;6848;117237;-76
2022/09/23 04:48:35;;;;;;;5.35;4.95;;;9.90;49.40;;;;;;20479;6848;278190;-76
2022/09/23 04:51:07;;;;;;;4.60;4.30;;;10.30;47.90;;;;;;20504;6848;306210;-75
2022/09/23 04:53:36;;;;;;;5.20;4.90;;;10.30;47.90;;;;;;20499;6848;278580;-77
2022/09/23 04:56:02;;;;;;;4.77;4.50;;;10.60;47.20;;;;;;20716;6848;120444;-74
2022/09/23 04:58:28;;;;;;;4.77;4.57;;;10.40;47.10;;;;;;20479;6849;283064;-76
2022/09/23 05:00:53;;;;;;;11.55;10.65;;;10.40;46.90;;;;;;20510;6849;307652;-74
2022/09/23 05:03:19;;;;;;;18.02;16.73;;;10.60;47.00;;;;;;20507;6849;312265;-75
2022/09/23 05:05:45;;;;;;;7.30;6.80;;;10.80;46.90;;;;;;20510;6849;282256;-75
2022/09/23 05:08:10;;;;;;;5.00;4.60;;;10.90;46.80;;;;;;20710;6849;116686;-74
2022/09/23 05:10:35;;;;;;;5.40;5.00;;;10.70;46.90;;;;;;20488;6849;338182;-74
2022/09/23 05:13:02;;;;;;;4.62;4.35;;;10.50;48.10;;;;;;20716;6849;118535;-75
2022/09/23 05:15:28;;;;;;;4.95;4.65;;;10.50;47.50;;;;;;20506;6849;309390;-75
2022/09/23 05:17:54;;;;;;;4.80;4.47;;;10.70;47.10;;;;;;20507;6848;278386;-74
2022/09/23 05:20:19;;;;;;;4.77;4.47;;;10.70;47.10;;;;;;20491;6849;308199;-74
2022/09/23 05:22:45;;;;;;;5.20;4.27;;;10.80;46.70;;;;;;20693;6849;117432;-74
2022/09/23 05:25:10;;;;;;;4.68;4.28;;;10.60;46.80;;;;;;20500;6849;279051;-73
2022/09/23 05:27:36;;;;;;;4.73;4.43;;;10.50;46.80;;;;;;20492;6849;311253;-74
2022/09/23 05:30:01;;;;;;;4.40;4.10;;;10.70;46.70;;;;;;20712;6849;118224;-75
2022/09/23 05:32:27;;;;;;;4.93;4.63;;;10.40;46.90;;;;;;20481;6846;310214;-74
2022/09/23 05:34:54;;;;;;;4.63;4.33;;;10.40;47.10;;;;;;20497;6848;313057;-74
2022/09/23 05:37:18;;;;;;;4.30;4.10;;;10.60;46.90;;;;;;20722;6848;67415;-78
2022/09/23 05:39:44;;;;;;;4.60;4.30;;;10.40;47.30;;;;;;20504;6848;310200;-77
2022/09/23 05:42:11;;;;;;;4.47;4.17;;;10.40;47.30;;;;;;20709;6848;117600;-75
2022/09/23 05:44:35;;;;;;;4.70;4.40;;;10.40;47.60;;;;;;20690;6848;117366;-75
2022/09/23 05:47:01;;;;;;;4.77;4.47;;;10.20;48.00;;;;;;20496;6848;295606;-74
2022/09/23 05:49:30;;;;;;;4.47;4.13;;;10.30;47.90;;;;;;20707;6848;117905;-79
2022/09/23 05:51:55;;;;;;;4.33;3.93;;;10.40;48.10;;;;;;20710;6848;117330;-81
2022/09/23 05:54:22;;;;;;;4.23;3.93;;;10.40;48.50;;;;;;20493;6848;309627;-78
2022/09/23 05:56:47;;;;;;;5.60;4.13;;;10.60;47.90;;;;;;20708;6848;117963;-77
2022/09/23 05:59:13;;;;;;;4.07;3.83;;;10.70;47.80;;;;;;20708;6848;117257;-77
2022/09/23 06:01:39;;;;;;;4.12;3.90;;;10.60;48.10;;;;;;20705;6848;117278;-78
2022/09/23 06:04:05;;;;;;;4.10;3.90;;;10.60;48.10;;;;;;20704;6848;117718;-81
2022/09/23 06:06:33;;;;;;;3.97;3.77;;;10.50;48.20;;;;;;20701;6848;117631;-78
2022/09/23 06:08:59;;;;;;;3.97;3.77;;;10.50;48.40;;;;;;20708;6849;117383;-80
2022/09/23 06:11:24;;;;;;;4.60;4.40;;;10.50;48.60;;;;;;20497;6849;308683;-80
2022/09/23 06:13:51;;;;;;;4.70;4.40;;;10.80;48.50;;;;;;20502;6849;279510;-76
2022/09/23 06:16:19;;;;;;;3.70;3.40;;;11.30;48.30;;;;;;20478;6849;308570;-80
2022/09/23 06:18:44;;;;;;;3.10;3.00;;;11.80;48.00;;;;;;20674;6849;117984;-78
2022/09/23 06:21:13;;;;;;;3.78;3.58;;;11.90;48.20;;;;;;20498;6849;312843;-81
2022/09/23 06:23:39;;;;;;;4.00;3.70;;;12.30;47.60;;;;;;20700;6849;121175;-78
2022/09/23 06:26:04;;;;;;;4.43;3.30;;;12.40;46.90;;;;;;20488;6849;312616;-79
2022/09/23 06:28:31;;;;;;;3.40;3.10;;;12.70;46.00;;;;;;20681;6849;117530;-77
2022/09/23 06:30:56;;;;;;;6.13;3.37;;;12.80;46.00;;;;;;20702;6849;117519;-76
2022/09/23 06:33:21;;;;;;;3.60;3.30;;;12.80;46.40;;;;;;20483;6849;326375;-76
2022/09/23 06:35:46;;;;;;;3.10;2.90;;;13.10;45.30;;;;;;20709;6849;117333;-75
2022/09/23 06:38:12;;;;;;;2.80;2.70;;;13.30;45.30;;;;;;20703;6849;117277;-75
2022/09/23 06:40:37;;;;;;;3.22;3.08;;;13.40;45.50;;;;;;20484;6849;341082;-75
2022/09/23 06:43:03;;;;;;;2.90;2.80;;;13.70;44.30;;;;;;20718;6847;121749;-75
2022/09/23 06:45:29;;;;;;;3.20;2.90;;;14.20;43.90;;;;;;20494;6848;338389;-75
2022/09/23 06:47:55;;;;;;;3.00;2.70;;;14.20;43.90;;;;;;20704;6848;117721;-74
2022/09/23 06:50:22;;;;;;;3.17;2.95;;;14.70;43.40;;;;;;20489;6848;337570;-75
2022/09/23 06:52:54;;;;;;;2.90;2.80;;;14.60;43.30;;;;;;20701;6848;118442;-75
2022/09/23 06:55:20;;;;;;;3.00;2.80;;;15.00;42.50;;;;;;20487;6848;316591;-75
2022/09/23 06:57:45;;;;;;;6.67;3.03;;;15.00;42.50;;;;;;20711;6848;117342;-75
2022/09/23 07:00:12;;;;;;;3.30;3.10;;;15.10;42.70;;;;;;20504;6848;345975;-77
2022/09/23 07:02:59;;;;;;;3.10;2.90;;;15.30;41.90;;;;;;20480;6848;278746;-76
2022/09/23 07:05:24;;;;;;;3.00;2.80;;;15.70;41.30;;;;;;20714;6848;120059;-75
2022/09/23 07:07:51;;;;;;;3.57;3.37;;;15.70;41.40;;;;;;20708;6848;117606;-75
2022/09/23 07:10:16;;;;;;;3.27;3.07;;;15.60;41.90;;;;;;20703;6848;121370;-75
2022/09/23 07:12:41;;;;;;;3.20;2.90;;;15.60;42.30;;;;;;20460;6848;328993;-75
2022/09/23 07:15:07;;;;;;;3.50;2.80;;;15.80;41.60;;;;;;20710;6848;117629;-75
2022/09/23 07:17:33;;;;;;;3.40;3.20;;;15.80;41.60;;;;;;20497;6848;279467;-75
2022/09/23 07:19:58;;;;;;;3.50;3.30;;;16.00;41.30;;;;;;20689;6848;117986;-75
2022/09/23 07:22:23;;;;;;;3.37;3.20;;;16.10;41.50;;;;;;20477;6849;283678;-75
2022/09/23 07:24:49;;;;;;;3.28;3.10;;;16.30;41.20;;;;;;20491;6849;280573;-75
2022/09/23 07:27:15;;;;;;;4.00;3.53;;;16.60;40.70;;;;;;20707;6849;117429;-74
2022/09/23 07:29:41;;;;;;;2.95;2.70;;;16.70;40.80;;;;;;20503;6849;338036;-74
2022/09/23 07:32:07;;;;;;;3.00;2.90;;;16.80;40.30;;;;;;20716;6849;118132;-72
2022/09/23 07:34:33;;;;;;;3.73;3.37;;;16.80;40.60;;;;;;20693;6849;117452;-73
2022/09/23 07:36:58;;;;;;;3.57;3.37;;;16.80;41.00;;;;;;20713;6849;117898;-74
2022/09/23 07:39:24;;;;;;;3.53;3.37;;;16.90;41.50;;;;;;20712;6849;117393;-73
2022/09/23 07:41:51;;;;;;;3.67;3.47;;;16.80;41.40;;;;;;20714;6849;117309;-73
2022/09/23 07:44:19;;;;;;;3.80;3.50;;;16.90;41.60;;;;;;20708;6849;117275;-73
2022/09/23 07:46:43;;;;;;;3.50;3.30;;;16.90;41.50;;;;;;20476;6849;308058;-73
2022/09/23 07:49:10;;;;;;;3.60;3.40;;;17.60;40.10;;;;;;20504;6849;278233;-73
2022/09/23 07:51:37;;;;;;;3.43;3.13;;;18.00;39.60;;;;;;20496;6849;311952;-73
2022/09/23 07:54:01;;;;;;;2.73;2.60;;;18.00;39.60;;;;;;20701;6847;117915;-73
2022/09/23 07:56:27;;;;;;;2.80;2.60;;;18.10;39.60;;;;;;20697;6848;118282;-73
2022/09/23 07:59:00;;;;;;;3.40;3.20;;;18.20;40.20;;;;;;20499;6848;279400;-73
2022/09/23 08:01:25;;;;;;;2.70;2.60;;;18.20;40.20;;;;;;20712;6848;118627;-73
2022/09/23 08:03:50;;;;;;;2.70;2.60;;;18.30;40.10;;;;;;20708;6848;117682;-73
2022/09/23 08:06:16;;;;;;;3.13;2.97;;;18.20;40.10;;;;;;20715;6848;117321;-72
2022/09/23 08:08:42;;;;;;;3.83;2.83;;;18.00;40.10;;;;;;20692;6848;122290;-73
2022/09/23 08:11:07;;;;;;;3.53;2.70;;;18.00;40.30;;;;;;20713;6848;117467;-73
2022/09/23 08:13:33;;;;;;;3.15;2.95;;;18.00;40.40;;;;;;20492;6848;308921;-72
2022/09/23 08:15:58;;;;;;;2.83;2.72;;;18.20;39.40;;;;;;20712;6848;117648;-72
2022/09/23 08:18:24;;;;;;;3.50;3.30;;;18.40;39.50;;;;;;20484;6848;312146;-73
2022/09/23 08:20:49;;;;;;;3.42;3.10;;;18.60;39.40;;;;;;20503;6848;278169;-72
2022/09/23 08:23:15;;;;;;;3.10;2.80;;;18.90;39.30;;;;;;20496;6848;308568;-72
2022/09/23 08:25:40;;;;;;;3.90;3.40;;;19.10;38.20;;;;;;20708;6848;117252;-72
2022/09/23 08:28:07;;;;;;;3.20;3.00;;;18.80;38.90;;;;;;20707;6848;117331;-72
2022/09/23 08:30:32;;;;;;;3.50;3.30;;;18.80;39.60;;;;;;20693;6848;117791;-75
2022/09/23 08:32:58;;;;;;;3.03;2.83;;;18.70;39.30;;;;;;20707;6849;117950;-72
2022/09/23 08:35:23;;;;;;;3.20;3.00;;;18.50;39.60;;;;;;20503;6849;278110;-73
2022/09/23 08:37:49;;;;;;;3.10;2.90;;;18.70;39.40;;;;;;20709;6849;119915;-72
2022/09/23 08:40:14;;;;;;;4.00;3.10;;;18.70;39.30;;;;;;20708;6849;124030;-73
2022/09/23 08:42:40;;;;;;;3.40;3.10;;;18.60;39.60;;;;;;20478;6849;278160;-72
2022/09/23 08:45:05;;;;;;;3.63;2.60;;;18.80;39.10;;;;;;20702;6849;121442;-74
2022/09/23 08:47:31;;;;;;;3.30;3.10;;;18.90;39.20;;;;;;20487;6849;302757;-75
2022/09/23 08:50:13;;;;;;;3.30;3.10;;;19.10;38.70;;;;;;20681;6849;117380;-73
2022/09/23 08:52:38;;;;;;;3.03;2.87;;;19.10;38.70;;;;;;20394;6849;307837;-73
2022/09/23 08:55:04;;;;;;;3.13;2.93;;;19.20;38.60;;;;;;20695;6849;117369;-73
2022/09/23 08:57:59;;;;;;;3.60;3.30;;;19.20;38.90;;;;;;20706;6849;117295;-73
2022/09/23 09:00:25;;;;;;;2.67;2.47;;;19.00;39.20;;;;;;20693;6849;117905;-72
2022/09/23 09:02:50;;;;;;;3.20;3.00;;;18.80;39.40;;;;;;20465;6849;323300;-72
2022/09/23 09:05:16;;;;;;;3.47;3.27;;;19.00;39.30;;;;;;20693;6847;117243;-72
2022/09/23 09:07:42;;;;;;;2.90;2.70;;;19.00;39.40;;;;;;20656;6848;123143;-72
2022/09/23 09:10:15;;;;;;;3.30;3.10;;;18.80;39.70;;;;;;20498;6848;307618;-73
2022/09/23 09:12:40;;;;;;;4.37;3.03;;;18.90;39.50;;;;;;20679;6848;117614;-72
2022/09/23 09:15:13;;;;;;;3.00;2.80;;;18.70;39.90;;;;;;20699;6848;118207;-74
2022/09/23 09:18:06;;;;;;;2.70;2.50;;;18.70;40.00;;;;;;20701;6848;118252;-75
2022/09/23 09:20:40;;;;;;;2.90;2.70;;;18.50;40.10;;;;;;20685;6848;127863;-77
2022/09/23 09:23:21;;;;;;;2.93;2.73;;;18.40;40.20;;;;;;20673;6848;118044;-75
2022/09/23 09:25:53;;;;;;;2.90;2.50;;;18.40;40.30;;;;;;20711;6848;117365;-74
2022/09/23 09:28:23;;;;;;;3.17;2.97;;;18.40;40.40;;;;;;20701;6848;118154;-75
2022/09/23 09:31:01;;;;;;;3.12;2.92;;;18.80;39.60;;;;;;20470;6848;329478;-74
2022/09/23 09:33:28;;;;;;;3.67;3.47;;;18.80;39.50;;;;;;20699;6848;121120;-75
2022/09/23 09:36:07;;;;;;;3.03;2.83;;;19.10;39.50;;;;;;20683;6848;117855;-75
2022/09/23 09:38:31;;;;;;;3.30;3.10;;;19.10;39.40;;;;;;20462;6848;320246;-75
2022/09/23 09:40:58;;;;;;;3.67;3.47;;;19.40;38.50;;;;;;20724;6848;69928;-74
2022/09/23 09:43:24;;;;;;;3.70;3.40;;;19.90;37.50;;;;;;20486;6849;310181;-75
2022/09/23 09:46:16;;;;;;;2.57;2.47;;;19.90;37.50;;;;;;20714;6849;117300;-74
2022/09/23 09:48:58;;;;;;;3.20;3.00;;;20.10;37.80;;;;;;20676;6849;117490;-74
2022/09/23 09:51:23;;;;;;;3.13;2.90;;;20.00;38.10;;;;;;20704;6849;117343;-74
2022/09/23 09:53:52;;;;;;;3.13;2.90;;;20.00;38.50;;;;;;20708;6849;118240;-74
2022/09/23 09:56:27;;;;;;;3.08;2.87;;;20.10;37.50;;;;;;20509;6849;312370;-74
2022/09/23 09:58:53;;;;;;;3.00;2.90;;;20.00;37.40;;;;;;20441;6849;308277;-79
2022/09/23 10:01:28;;;;;;;3.15;2.95;;;20.40;37.90;;;;;;20490;6849;337647;-80
2022/09/23 10:03:58;;;;;;;4.97;3.40;;;21.10;38.20;;;;;;20484;6849;342103;-79
2022/09/23 10:06:27;;;;;;;3.47;3.03;;;21.10;38.20;;;;;;20371;6849;278098;-79
2022/09/23 10:09:03;;;;;;;2.60;2.40;;;21.30;37.20;;;;;;20684;6849;117975;-76
2022/09/23 10:11:29;;;;;;;3.10;2.85;;;21.20;37.60;;;;;;20488;6849;309216;-79
2022/09/23 10:14:01;;;;;;;3.83;2.63;;;21.20;36.80;;;;;;20703;6849;117316;-82
2022/09/23 10:16:27;;;;;;;3.73;2.60;;;21.20;37.10;;;;;;20688;6849;118269;-77
2022/09/23 10:18:55;;;;;;;4.33;2.87;;;20.90;37.40;;;;;;20671;6847;117393;-76
2022/09/23 10:21:18;;;;;;;3.25;3.00;;;20.80;37.70;;;;;;20481;6848;296642;-73
2022/09/23 10:23:43;;;;;;;2.87;2.78;;;21.00;38.20;;;;;;20482;6848;307854;-75
2022/09/23 10:26:10;;;;;;;3.03;2.90;;;21.40;38.30;;;;;;20708;6848;118356;-75
2022/09/23 10:28:45;;;;;;;3.47;3.07;;;21.50;38.10;;;;;;20694;6848;120323;-76
2022/09/23 10:31:26;;;;;;;3.00;2.80;;;21.40;38.00;;;;;;20714;6848;118162;-77
2022/09/23 10:33:59;;;;;;;3.00;2.80;;;21.60;38.60;;;;;;20466;6848;313390;-76
2022/09/23 10:36:29;;;;;;;3.07;2.87;;;22.00;38.30;;;;;;20458;6848;303557;-75
2022/09/23 10:46:37;;;;;;;3.33;3.12;;;22.40;37.00;;;;;;20489;6848;337256;-73
2022/09/23 10:47:34;;;;;;;4.00;3.70;;;22.20;37.20;;;;;;20492;6848;279363;-73
2022/09/23 10:50:13;;;;;;;3.63;3.33;;;22.30;37.10;;;;;;20320;6848;316574;-73
2022/09/23 10:52:55;;;;;;;3.22;3.00;;;22.60;36.00;;;;;;20480;6848;308487;-73
2022/09/23 10:55:20;;;;;;;3.87;3.50;;;22.80;35.70;;;;;;20489;6849;308731;-72
2022/09/23 10:57:59;;;;;;;3.63;3.27;;;22.90;36.30;;;;;;20696;6849;117893;-74
2022/09/23 11:00:54;;;;;;;3.60;3.30;;;22.80;36.50;;;;;;20693;6849;117868;-76
2022/09/23 11:03:37;;;;;;;3.70;3.50;;;22.50;36.90;;;;;;20491;6849;307963;-74
2022/09/23 11:06:20;;;;;;;4.00;3.80;;;22.60;37.00;;;;;;20673;6849;119787;-76
2022/09/23 11:09:16;;;;;;;4.07;3.30;;;22.50;37.00;;;;;;20677;6849;117543;-76
2022/09/23 11:12:11;;;;;;;4.27;3.90;;;22.30;37.50;;;;;;20707;6849;117729;-74
2022/09/23 11:14:50;;;;;;;3.60;3.30;;;22.00;37.80;;;;;;20683;6849;117554;-74
2022/09/23 11:17:45;;;;;;;4.20;3.90;;;22.00;37.80;;;;;;20707;6849;121614;-73
2022/09/23 11:20:31;;;;;;;3.50;3.20;;;22.00;37.70;;;;;;20077;6849;313562;-76
2022/09/23 11:22:56;;;;;;;3.23;3.13;;;22.20;36.20;;;;;;20499;6849;283109;-78
2022/09/23 11:25:46;;;;;;;3.55;2.90;;;22.50;36.60;;;;;;20473;6849;308772;-78
2022/09/23 11:28:16;;;;;;;2.90;2.70;;;22.80;35.50;;;;;;20495;6847;308474;-76
2022/09/23 11:31:05;;;;;;;3.30;3.00;;;23.00;35.60;;;;;;20691;6848;117257;-75
2022/09/23 11:33:29;;;;;;;3.40;3.20;;;23.00;35.50;;;;;;20487;6848;278378;-76
2022/09/23 11:35:55;;;;;;;3.23;3.03;;;23.00;36.40;;;;;;20465;6848;282165;-75
2022/09/23 11:38:26;;;;;;;3.47;3.17;;;23.30;36.10;;;;;;20485;6848;278311;-75
2022/09/23 11:40:53;;;;;;;3.25;3.05;;;23.40;35.50;;;;;;20468;6848;337104;-75
2022/09/23 11:43:17;;;;;;;2.53;2.40;;;23.60;34.10;;;;;;20627;6848;118449;-73
2022/09/23 11:45:44;;;;;;;3.43;3.10;;;23.20;35.30;;;;;;20685;6848;117152;-73
2022/09/23 11:48:16;;;;;;;3.53;2.80;;;23.10;35.20;;;;;;20680;6848;117254;-73
2022/09/23 11:50:41;;;;;;;3.30;2.97;;;22.90;35.20;;;;;;20474;6848;308306;-72
2022/09/23 11:53:08;;;;;;;3.50;3.30;;;23.30;35.20;;;;;;20475;6848;277857;-75
2022/09/23 11:55:41;;;;;;;3.03;2.83;;;23.20;35.10;;;;;;20692;6848;117606;-74
2022/09/23 11:58:23;;;;;;;3.27;2.87;;;23.00;35.20;;;;;;20692;6848;117380;-71
2022/09/23 12:00:48;;;;;;;3.07;2.93;;;23.00;35.20;;;;;;20693;6848;117670;-73
2022/09/23 12:03:31;;;;;;;3.07;2.87;;;22.80;35.10;;;;;;20471;6848;300261;-73
2022/09/23 12:06:08;;;;;;;2.80;2.67;;;23.00;34.80;;;;;;20689;6848;123179;-73
2022/09/23 12:08:32;;;;;;;2.60;2.50;;;22.90;34.70;;;;;;20652;6849;118045;-73
2022/09/23 12:11:18;;;;;;;3.03;2.70;;;22.90;35.40;;;;;;20485;6849;311908;-73
2022/09/23 12:14:03;;;;;;;2.77;2.50;;;22.90;35.30;;;;;;20691;6849;117248;-73
2022/09/23 12:17:06;;;;;;;2.57;2.37;;;22.90;35.60;;;;;;20685;6849;117639;-71
2022/09/23 12:19:54;;;;;;;3.43;2.57;;;22.80;35.60;;;;;;20705;6849;121889;-71
2022/09/23 12:22:41;;;;;;;2.80;2.60;;;22.60;35.60;;;;;;20475;6849;338104;-71
2022/09/23 12:25:16;;;;;;;4.07;2.72;;;22.80;34.90;;;;;;20484;6849;298524;-72
2022/09/23 12:27:43;;;;;;;4.25;2.80;;;23.20;35.10;;;;;;20500;6849;309934;-74
2022/09/23 12:30:16;;;;;;;3.10;2.87;;;23.60;34.40;;;;;;20487;6849;296778;-75
2022/09/23 12:32:41;;;;;;;5.73;2.67;;;23.60;34.30;;;;;;20663;6849;117391;-72
2022/09/23 12:35:24;;;;;;;2.83;2.63;;;23.20;35.30;;;;;;20713;6849;117553;-72
2022/09/23 12:37:50;;;;;;;3.97;2.53;;;23.20;34.50;;;;;;20489;6849;309020;-75
2022/09/23 12:40:27;;;;;;;2.87;2.67;;;23.30;35.40;;;;;;20702;6847;117763;-72
2022/09/23 12:42:51;;;;;;;3.20;2.90;;;23.00;35.70;;;;;;20698;6848;117366;-71
2022/09/23 12:45:33;;;;;;;2.60;2.40;;;23.00;35.70;;;;;;20497;6848;308284;-73
2022/09/23 12:47:56;;;;;;;3.13;2.80;;;23.00;35.70;;;;;;20685;6848;117764;-70
2022/09/23 12:50:44;;;;;;;3.05;2.75;;;23.00;35.30;;;;;;20494;6848;342269;-71
2022/09/23 12:53:30;;;;;;;4.90;2.77;;;23.10;34.70;;;;;;20386;6848;123581;-70
2022/09/23 12:55:55;;;;;;;2.93;2.50;;;23.00;34.90;;;;;;20336;6848;117692;-73